FIN822 EFHK-EGLL
Flight info
| Callsign | FIN822 |
|---|---|
| Flight time | 2h 33m |
| Altitude | 38000 |
| Route | ADIVO Y365 POGOK DCT TIPIX DCT UPGAS DCT TIPAN DCT WECOW DCT BINBO DCT AKOKO N866 BUKUT P7 BARMI |
| Aircraft | A359/H-SDE2E3GHIJ3J4J5LM1ORWXY/LB1D1 |
Departure
| Time | 2026-05-07 13:12 |
|---|---|
| Airport | Helsinki Vantaa Airport (EFHK) |
Arrival
| Time | 2026-05-07 15:46 |
|---|---|
| Airport | London Heathrow Airport (EGLL) |
| Time | Latitude | Longitude | Altitude | Speed | Heading |
|---|---|---|---|---|---|
| 2026-05-07 12:56 | 60.31469 | 24.95604 | 168 ft | 0 kts | 138° |
| 2026-05-07 13:01 | 60.31469 | 24.95602 | 168 ft | 0 kts | 138° |
| 2026-05-07 13:02 | 60.31472 | 24.95598 | 168 ft | 1 kts | 138° |
| 2026-05-07 13:02 | 60.31475 | 24.95593 | 168 ft | 1 kts | 138° |
| 2026-05-07 13:02 | 60.31487 | 24.95569 | 168 ft | 3 kts | 137° |
| 2026-05-07 13:02 | 60.31503 | 24.95535 | 168 ft | 4 kts | 117° |
| 2026-05-07 13:03 | 60.31507 | 24.95488 | 168 ft | 4 kts | 68° |
| 2026-05-07 13:03 | 60.31496 | 24.95452 | 168 ft | 0 kts | 48° |
| 2026-05-07 13:03 | 60.31494 | 24.95446 | 168 ft | 1 kts | 48° |
| 2026-05-07 13:04 | 60.31494 | 24.95445 | 168 ft | 0 kts | 48° |
| 2026-05-07 13:06 | 60.31493 | 24.95445 | 168 ft | 0 kts | 48° |
| 2026-05-07 13:06 | 60.31496 | 24.95450 | 168 ft | 4 kts | 48° |
| 2026-05-07 13:07 | 60.31539 | 24.95548 | 168 ft | 11 kts | 48° |
| 2026-05-07 13:07 | 60.31607 | 24.95650 | 168 ft | 13 kts | 8° |
| 2026-05-07 13:07 | 60.31688 | 24.95574 | 168 ft | 13 kts | 333° |
| 2026-05-07 13:07 | 60.31770 | 24.95615 | 168 ft | 14 kts | 44° |
| 2026-05-07 13:08 | 60.31849 | 24.95772 | 168 ft | 18 kts | 47° |
| 2026-05-07 13:08 | 60.31940 | 24.95938 | 168 ft | 16 kts | 14° |
| 2026-05-07 13:08 | 60.32033 | 24.95832 | 169 ft | 16 kts | 323° |
| 2026-05-07 13:08 | 60.32123 | 24.95674 | 168 ft | 19 kts | 317° |
| 2026-05-07 13:09 | 60.32229 | 24.95474 | 167 ft | 22 kts | 317° |
| 2026-05-07 13:09 | 60.32325 | 24.95308 | 167 ft | 18 kts | 328° |
| 2026-05-07 13:09 | 60.32446 | 24.95208 | 167 ft | 20 kts | 340° |
| 2026-05-07 13:09 | 60.32589 | 24.95108 | 167 ft | 23 kts | 342° |
| 2026-05-07 13:10 | 60.32750 | 24.95010 | 167 ft | 23 kts | 342° |
| 2026-05-07 13:10 | 60.32882 | 24.94916 | 167 ft | 20 kts | 333° |
| 2026-05-07 13:10 | 60.32997 | 24.94723 | 168 ft | 23 kts | 317° |
| 2026-05-07 13:10 | 60.33098 | 24.94520 | 174 ft | 13 kts | 304° |
| 2026-05-07 13:11 | 60.33102 | 24.94378 | 180 ft | 10 kts | 243° |
| 2026-05-07 13:11 | 60.33061 | 24.94271 | 182 ft | 10 kts | 230° |
| 2026-05-07 13:11 | 60.33034 | 24.94212 | 183 ft | 0 kts | 228° |
| 2026-05-07 13:11 | 60.33027 | 24.94197 | 195 ft | 14 kts | 228° |
| 2026-05-07 13:12 | 60.32767 | 24.93625 | 180 ft | 94 kts | 227° |
| 2026-05-07 13:12 | 60.32173 | 24.92322 | 170 ft | 158 kts | 227° |
| 2026-05-07 13:12 | 60.31390 | 24.90525 | 725 ft | 174 kts | 228° |
| 2026-05-07 13:12 | 60.30643 | 24.88565 | 1570 ft | 182 kts | 234° |
| 2026-05-07 13:13 | 60.30377 | 24.85947 | 2109 ft | 208 kts | 281° |
| 2026-05-07 13:13 | 60.30833 | 24.83085 | 2782 ft | 223 kts | 289° |
| 2026-05-07 13:13 | 60.31347 | 24.79946 | 3303 ft | 244 kts | 287° |
| 2026-05-07 13:13 | 60.31693 | 24.76539 | 4131 ft | 251 kts | 275° |
| 2026-05-07 13:14 | 60.31708 | 24.73002 | 5105 ft | 253 kts | 270° |
| 2026-05-07 13:14 | 60.31639 | 24.69411 | 6061 ft | 259 kts | 269° |
| 2026-05-07 13:14 | 60.31554 | 24.65759 | 7064 ft | 262 kts | 269° |
| 2026-05-07 13:14 | 60.31468 | 24.62118 | 8083 ft | 264 kts | 269° |
| 2026-05-07 13:15 | 60.31380 | 24.58411 | 9176 ft | 264 kts | 268° |
| 2026-05-07 13:15 | 60.31294 | 24.54687 | 10248 ft | 267 kts | 266° |
| 2026-05-07 13:15 | 60.31195 | 24.50817 | 10818 ft | 287 kts | 266° |
| 2026-05-07 13:15 | 60.31086 | 24.46635 | 11270 ft | 310 kts | 266° |
| 2026-05-07 13:16 | 60.30968 | 24.42176 | 11851 ft | 325 kts | 266° |
| 2026-05-07 13:16 | 60.30847 | 24.37586 | 12769 ft | 329 kts | 266° |
| 2026-05-07 13:16 | 60.30725 | 24.32974 | 13807 ft | 330 kts | 266° |
| 2026-05-07 13:16 | 60.30601 | 24.28335 | 14680 ft | 333 kts | 266° |
| 2026-05-07 13:17 | 60.30474 | 24.23644 | 15530 ft | 337 kts | 266° |
| 2026-05-07 13:17 | 60.30343 | 24.18895 | 16387 ft | 341 kts | 266° |
| 2026-05-07 13:17 | 60.30209 | 24.14092 | 17342 ft | 344 kts | 265° |
| 2026-05-07 13:17 | 60.30074 | 24.09284 | 18382 ft | 344 kts | 265° |
| 2026-05-07 13:18 | 60.29936 | 24.04451 | 19162 ft | 347 kts | 265° |
| 2026-05-07 13:18 | 60.29770 | 23.99565 | 19938 ft | 350 kts | 263° |
| 2026-05-07 13:18 | 60.29419 | 23.94691 | 20735 ft | 352 kts | 259° |
| 2026-05-07 13:18 | 60.28949 | 23.89834 | 21543 ft | 354 kts | 257° |
| 2026-05-07 13:19 | 60.28420 | 23.84967 | 22333 ft | 357 kts | 256° |
| 2026-05-07 13:19 | 60.27864 | 23.80073 | 23117 ft | 360 kts | 256° |
| 2026-05-07 13:19 | 60.27490 | 23.76807 | 23646 ft | 362 kts | 256° |
| 2026-05-07 13:19 | 60.26742 | 23.70217 | 24470 ft | 366 kts | 256° |
| 2026-05-07 13:20 | 60.26179 | 23.65207 | 25115 ft | 368 kts | 256° |
| 2026-05-07 13:20 | 60.25616 | 23.60158 | 25752 ft | 371 kts | 256° |
| 2026-05-07 13:20 | 60.25052 | 23.55070 | 26391 ft | 373 kts | 256° |
| 2026-05-07 13:20 | 60.24675 | 23.51675 | 26817 ft | 375 kts | 256° |
| 2026-05-07 13:21 | 60.24104 | 23.46537 | 27445 ft | 378 kts | 255° |
| 2026-05-07 13:21 | 60.23525 | 23.41350 | 28067 ft | 381 kts | 255° |
| 2026-05-07 13:21 | 60.22939 | 23.36115 | 28683 ft | 383 kts | 255° |
| 2026-05-07 13:21 | 60.22350 | 23.30881 | 29342 ft | 386 kts | 255° |
| 2026-05-07 13:22 | 60.21754 | 23.25603 | 29948 ft | 388 kts | 255° |
| 2026-05-07 13:22 | 60.21151 | 23.20285 | 30426 ft | 391 kts | 255° |
| 2026-05-07 13:22 | 60.20542 | 23.14932 | 30801 ft | 396 kts | 255° |
| 2026-05-07 13:22 | 60.19920 | 23.09502 | 31096 ft | 401 kts | 255° |
| 2026-05-07 13:23 | 60.19289 | 23.04005 | 31419 ft | 406 kts | 255° |
| 2026-05-07 13:23 | 60.18648 | 22.98444 | 31810 ft | 409 kts | 255° |
| 2026-05-07 13:23 | 60.18001 | 22.92854 | 32192 ft | 412 kts | 255° |
| 2026-05-07 13:23 | 60.17346 | 22.87217 | 32567 ft | 416 kts | 255° |
| 2026-05-07 13:24 | 60.16683 | 22.81535 | 32910 ft | 419 kts | 255° |
| 2026-05-07 13:24 | 60.16014 | 22.75820 | 33244 ft | 422 kts | 255° |
| 2026-05-07 13:24 | 60.15336 | 22.70059 | 33546 ft | 426 kts | 255° |
| 2026-05-07 13:24 | 60.14652 | 22.64263 | 33978 ft | 426 kts | 255° |
| 2026-05-07 13:25 | 60.13976 | 22.58553 | 34371 ft | 426 kts | 255° |
| 2026-05-07 13:25 | 60.13290 | 22.52761 | 34668 ft | 427 kts | 255° |
| 2026-05-07 13:25 | 60.12594 | 22.46948 | 34968 ft | 430 kts | 256° |
| 2026-05-07 13:25 | 60.11890 | 22.41110 | 35234 ft | 432 kts | 256° |
| 2026-05-07 13:26 | 60.11181 | 22.35252 | 35538 ft | 433 kts | 256° |
| 2026-05-07 13:26 | 60.10469 | 22.29390 | 35826 ft | 434 kts | 255° |
| 2026-05-07 13:26 | 60.09754 | 22.23515 | 36101 ft | 435 kts | 255° |
| 2026-05-07 13:26 | 60.09032 | 22.17613 | 36378 ft | 436 kts | 255° |
| 2026-05-07 13:27 | 60.08307 | 22.11698 | 36664 ft | 437 kts | 255° |
| 2026-05-07 13:27 | 60.07577 | 22.05773 | 36905 ft | 439 kts | 255° |
| 2026-05-07 13:27 | 60.06842 | 21.99826 | 37137 ft | 440 kts | 255° |
| 2026-05-07 13:27 | 60.06103 | 21.93879 | 37419 ft | 441 kts | 255° |
| 2026-05-07 13:28 | 60.05360 | 21.87916 | 37702 ft | 441 kts | 255° |
| 2026-05-07 13:28 | 60.04613 | 21.81952 | 37961 ft | 442 kts | 255° |
| 2026-05-07 13:28 | 60.03860 | 21.75961 | 38086 ft | 444 kts | 255° |
| 2026-05-07 13:28 | 60.03104 | 21.69974 | 38120 ft | 444 kts | 255° |
| 2026-05-07 13:29 | 60.01593 | 21.58080 | 38097 ft | 445 kts | 255° |
| 2026-05-07 13:29 | 60.00058 | 21.46087 | 38097 ft | 445 kts | 255° |
| 2026-05-07 13:30 | 59.98197 | 21.34272 | 38099 ft | 445 kts | 249° |
| 2026-05-07 13:30 | 59.95972 | 21.22827 | 38100 ft | 445 kts | 248° |
| 2026-05-07 13:31 | 59.93663 | 21.11362 | 38102 ft | 445 kts | 248° |
| 2026-05-07 13:31 | 59.91342 | 20.99915 | 38102 ft | 445 kts | 248° |
| 2026-05-07 13:32 | 59.89022 | 20.88487 | 38100 ft | 445 kts | 248° |
| 2026-05-07 13:32 | 59.86690 | 20.77046 | 38100 ft | 446 kts | 248° |
| 2026-05-07 13:33 | 59.84346 | 20.65606 | 38103 ft | 446 kts | 248° |
| 2026-05-07 13:33 | 59.81991 | 20.54176 | 38103 ft | 446 kts | 248° |
| 2026-05-07 13:34 | 59.78458 | 20.37150 | 38100 ft | 447 kts | 248° |
| 2026-05-07 13:35 | 59.76078 | 20.25760 | 38083 ft | 446 kts | 248° |
| 2026-05-07 13:35 | 59.73685 | 20.14377 | 38102 ft | 446 kts | 248° |
| 2026-05-07 13:36 | 59.71286 | 20.03021 | 38103 ft | 446 kts | 248° |
| 2026-05-07 13:36 | 59.68874 | 19.91670 | 38105 ft | 447 kts | 248° |
| 2026-05-07 13:37 | 59.66452 | 19.80333 | 38102 ft | 448 kts | 248° |
| 2026-05-07 13:37 | 59.64014 | 19.68986 | 38102 ft | 448 kts | 248° |
| 2026-05-07 13:38 | 59.61582 | 19.57725 | 38106 ft | 448 kts | 248° |
| 2026-05-07 13:38 | 59.59126 | 19.46415 | 38064 ft | 448 kts | 247° |
| 2026-05-07 13:39 | 59.56658 | 19.35113 | 38099 ft | 450 kts | 247° |
| 2026-05-07 13:39 | 59.54173 | 19.23790 | 38102 ft | 450 kts | 247° |
| 2026-05-07 13:40 | 59.51674 | 19.12469 | 38102 ft | 450 kts | 247° |
| 2026-05-07 13:40 | 59.49169 | 19.01178 | 38099 ft | 450 kts | 247° |
| 2026-05-07 13:41 | 59.46650 | 18.89887 | 38102 ft | 450 kts | 247° |
| 2026-05-07 13:41 | 59.44120 | 18.78610 | 38103 ft | 450 kts | 247° |
| 2026-05-07 13:42 | 59.41585 | 18.67367 | 38097 ft | 450 kts | 247° |
| 2026-05-07 13:42 | 59.39036 | 18.56120 | 38094 ft | 451 kts | 246° |
| 2026-05-07 13:43 | 59.36479 | 18.44901 | 38095 ft | 451 kts | 246° |
| 2026-05-07 13:43 | 59.33910 | 18.33689 | 38097 ft | 451 kts | 247° |
| 2026-05-07 13:44 | 59.31344 | 18.22547 | 38075 ft | 453 kts | 246° |
| 2026-05-07 13:44 | 59.28743 | 18.11313 | 38070 ft | 453 kts | 246° |
| 2026-05-07 13:45 | 59.26132 | 18.00095 | 38072 ft | 453 kts | 246° |
| 2026-05-07 13:45 | 59.23515 | 17.88904 | 38079 ft | 453 kts | 246° |
| 2026-05-07 13:46 | 59.20878 | 17.77693 | 38087 ft | 453 kts | 246° |
| 2026-05-07 13:46 | 59.18251 | 17.66578 | 38086 ft | 453 kts | 246° |
| 2026-05-07 13:47 | 59.15599 | 17.55416 | 38086 ft | 454 kts | 246° |
| 2026-05-07 13:47 | 59.12935 | 17.44268 | 38090 ft | 453 kts | 246° |
| 2026-05-07 13:48 | 59.10267 | 17.33149 | 38083 ft | 453 kts | 246° |
| 2026-05-07 13:48 | 59.07588 | 17.22048 | 38084 ft | 453 kts | 246° |
| 2026-05-07 13:49 | 59.04900 | 17.10963 | 38078 ft | 453 kts | 246° |
| 2026-05-07 13:49 | 59.02202 | 16.99892 | 38073 ft | 454 kts | 246° |
| 2026-05-07 13:50 | 58.99491 | 16.88827 | 38074 ft | 454 kts | 246° |
| 2026-05-07 13:50 | 58.96787 | 16.77846 | 38081 ft | 454 kts | 246° |
| 2026-05-07 13:51 | 58.94061 | 16.66830 | 38079 ft | 453 kts | 246° |
| 2026-05-07 13:51 | 58.91332 | 16.55857 | 38073 ft | 452 kts | 246° |
| 2026-05-07 13:52 | 58.88612 | 16.44903 | 38065 ft | 452 kts | 246° |
| 2026-05-07 13:52 | 58.85916 | 16.33932 | 38055 ft | 451 kts | 246° |
| 2026-05-07 13:53 | 58.83210 | 16.22963 | 38055 ft | 453 kts | 246° |
| 2026-05-07 13:53 | 58.80485 | 16.11996 | 38056 ft | 453 kts | 246° |
| 2026-05-07 13:54 | 58.77764 | 16.01111 | 38052 ft | 453 kts | 246° |
| 2026-05-07 13:54 | 58.75000 | 15.90113 | 38058 ft | 453 kts | 245° |
| 2026-05-07 13:55 | 58.72267 | 15.79294 | 38048 ft | 452 kts | 245° |
| 2026-05-07 13:55 | 58.69510 | 15.68427 | 38050 ft | 451 kts | 245° |
| 2026-05-07 13:56 | 58.66749 | 15.57597 | 38053 ft | 451 kts | 245° |
| 2026-05-07 13:56 | 58.63973 | 15.46762 | 38066 ft | 453 kts | 245° |
| 2026-05-07 13:57 | 58.61173 | 15.35886 | 38068 ft | 455 kts | 245° |
| 2026-05-07 13:57 | 58.58361 | 15.25022 | 38066 ft | 455 kts | 245° |
| 2026-05-07 13:58 | 58.55537 | 15.14162 | 38071 ft | 455 kts | 245° |
| 2026-05-07 13:58 | 58.52708 | 15.03334 | 38069 ft | 454 kts | 245° |
| 2026-05-07 13:59 | 58.49876 | 14.92546 | 38070 ft | 454 kts | 245° |
| 2026-05-07 13:59 | 58.47049 | 14.81827 | 38074 ft | 454 kts | 245° |
| 2026-05-07 14:00 | 58.44195 | 14.71061 | 38078 ft | 455 kts | 245° |
| 2026-05-07 14:00 | 58.41327 | 14.60294 | 38075 ft | 455 kts | 244° |
| 2026-05-07 14:01 | 58.38450 | 14.49542 | 38076 ft | 455 kts | 244° |
| 2026-05-07 14:01 | 58.35556 | 14.38778 | 38077 ft | 456 kts | 244° |
| 2026-05-07 14:02 | 58.32654 | 14.28039 | 38075 ft | 455 kts | 244° |
| 2026-05-07 14:02 | 58.29766 | 14.17400 | 38076 ft | 455 kts | 244° |
| 2026-05-07 14:03 | 58.26849 | 14.06704 | 38071 ft | 455 kts | 244° |
| 2026-05-07 14:03 | 58.23922 | 13.96020 | 38074 ft | 457 kts | 244° |
| 2026-05-07 14:04 | 58.20977 | 13.85320 | 38074 ft | 458 kts | 244° |
| 2026-05-07 14:04 | 58.18018 | 13.74622 | 38073 ft | 458 kts | 244° |
| 2026-05-07 14:05 | 58.15067 | 13.64004 | 38083 ft | 458 kts | 244° |
| 2026-05-07 14:05 | 58.12092 | 13.53347 | 38081 ft | 457 kts | 244° |
| 2026-05-07 14:06 | 58.09110 | 13.42714 | 38074 ft | 457 kts | 243° |
| 2026-05-07 14:06 | 58.06118 | 13.32098 | 38078 ft | 457 kts | 243° |
| 2026-05-07 14:07 | 58.03624 | 13.23284 | 38078 ft | 457 kts | 243° |
| 2026-05-07 14:07 | 58.00619 | 13.12710 | 38074 ft | 457 kts | 243° |
| 2026-05-07 14:08 | 57.97114 | 13.00435 | 38078 ft | 458 kts | 243° |
| 2026-05-07 14:08 | 57.94579 | 12.91599 | 38088 ft | 458 kts | 243° |
| 2026-05-07 14:09 | 57.91565 | 12.81139 | 38076 ft | 457 kts | 243° |
| 2026-05-07 14:09 | 57.88525 | 12.70634 | 38080 ft | 457 kts | 243° |
| 2026-05-07 14:10 | 57.85473 | 12.60136 | 38078 ft | 457 kts | 243° |
| 2026-05-07 14:10 | 57.82406 | 12.49635 | 38075 ft | 458 kts | 243° |
| 2026-05-07 14:11 | 57.79327 | 12.39137 | 38076 ft | 459 kts | 243° |
| 2026-05-07 14:11 | 57.76258 | 12.28725 | 38076 ft | 459 kts | 242° |
| 2026-05-07 14:12 | 57.73160 | 12.18260 | 38112 ft | 459 kts | 242° |
| 2026-05-07 14:12 | 57.70053 | 12.07809 | 38104 ft | 459 kts | 242° |
| 2026-05-07 14:13 | 57.66956 | 11.97441 | 38101 ft | 459 kts | 242° |
| 2026-05-07 14:13 | 57.63835 | 11.87040 | 38087 ft | 459 kts | 242° |
| 2026-05-07 14:14 | 57.60701 | 11.76637 | 38108 ft | 461 kts | 242° |
| 2026-05-07 14:14 | 57.57551 | 11.66230 | 38111 ft | 461 kts | 242° |
| 2026-05-07 14:15 | 57.54390 | 11.55836 | 38117 ft | 461 kts | 242° |
| 2026-05-07 14:15 | 57.51222 | 11.45462 | 38118 ft | 461 kts | 242° |
| 2026-05-07 14:16 | 57.48062 | 11.35161 | 38118 ft | 461 kts | 242° |
| 2026-05-07 14:16 | 57.44875 | 11.24816 | 38119 ft | 461 kts | 242° |
| 2026-05-07 14:17 | 57.41679 | 11.14489 | 38115 ft | 462 kts | 241° |
| 2026-05-07 14:17 | 57.38460 | 11.04128 | 38120 ft | 464 kts | 241° |
| 2026-05-07 14:18 | 57.35230 | 10.93784 | 38120 ft | 464 kts | 241° |
| 2026-05-07 14:18 | 57.31987 | 10.83442 | 38120 ft | 464 kts | 241° |
| 2026-05-07 14:19 | 57.28735 | 10.73112 | 38123 ft | 464 kts | 241° |
| 2026-05-07 14:19 | 57.25501 | 10.62891 | 38121 ft | 463 kts | 241° |
| 2026-05-07 14:20 | 57.22247 | 10.52647 | 38120 ft | 463 kts | 241° |
| 2026-05-07 14:20 | 57.18975 | 10.42393 | 38112 ft | 464 kts | 240° |
| 2026-05-07 14:21 | 57.15686 | 10.32126 | 38107 ft | 465 kts | 240° |
| 2026-05-07 14:21 | 57.12384 | 10.21867 | 38103 ft | 465 kts | 240° |
| 2026-05-07 14:22 | 57.09071 | 10.11616 | 38100 ft | 465 kts | 240° |
| 2026-05-07 14:22 | 57.05754 | 10.01398 | 38104 ft | 465 kts | 240° |
| 2026-05-07 14:23 | 57.02436 | 9.91221 | 38103 ft | 465 kts | 240° |
| 2026-05-07 14:23 | 56.99107 | 9.81052 | 38089 ft | 465 kts | 240° |
| 2026-05-07 14:24 | 56.95763 | 9.70882 | 38100 ft | 467 kts | 240° |
| 2026-05-07 14:24 | 56.92398 | 9.60689 | 38094 ft | 467 kts | 240° |
| 2026-05-07 14:25 | 56.89047 | 9.50585 | 38093 ft | 467 kts | 240° |
| 2026-05-07 14:25 | 56.85664 | 9.40425 | 38093 ft | 467 kts | 239° |
| 2026-05-07 14:26 | 56.82272 | 9.30283 | 38097 ft | 467 kts | 239° |
| 2026-05-07 14:26 | 56.78884 | 9.20197 | 38089 ft | 466 kts | 239° |
| 2026-05-07 14:27 | 56.75479 | 9.10100 | 38089 ft | 467 kts | 239° |
| 2026-05-07 14:27 | 56.72061 | 9.00007 | 38092 ft | 468 kts | 239° |
| 2026-05-07 14:28 | 56.68630 | 8.89920 | 38093 ft | 469 kts | 239° |
| 2026-05-07 14:28 | 56.65189 | 8.79843 | 38097 ft | 468 kts | 239° |
| 2026-05-07 14:29 | 56.61743 | 8.69797 | 38098 ft | 468 kts | 239° |
| 2026-05-07 14:29 | 56.58314 | 8.59838 | 38105 ft | 468 kts | 239° |
| 2026-05-07 14:30 | 56.54857 | 8.49842 | 38097 ft | 468 kts | 238° |
| 2026-05-07 14:30 | 56.51381 | 8.39833 | 38111 ft | 470 kts | 238° |
| 2026-05-07 14:31 | 56.47895 | 8.29835 | 38113 ft | 470 kts | 238° |
| 2026-05-07 14:31 | 56.44393 | 8.19833 | 38115 ft | 470 kts | 238° |
| 2026-05-07 14:32 | 56.40880 | 8.09844 | 38111 ft | 470 kts | 238° |
| 2026-05-07 14:32 | 56.37363 | 7.99880 | 38118 ft | 470 kts | 238° |
| 2026-05-07 14:33 | 56.33864 | 7.90012 | 38118 ft | 469 kts | 238° |
| 2026-05-07 14:33 | 56.30331 | 7.80086 | 38119 ft | 471 kts | 238° |
| 2026-05-07 14:34 | 56.26783 | 7.70158 | 38120 ft | 472 kts | 238° |
| 2026-05-07 14:34 | 56.23223 | 7.60241 | 38122 ft | 472 kts | 238° |
| 2026-05-07 14:35 | 56.19652 | 7.50331 | 38118 ft | 472 kts | 238° |
| 2026-05-07 14:35 | 56.16074 | 7.40440 | 38122 ft | 472 kts | 237° |
| 2026-05-07 14:36 | 56.12498 | 7.30596 | 38122 ft | 470 kts | 237° |
| 2026-05-07 14:36 | 56.08917 | 7.20781 | 38115 ft | 470 kts | 237° |
| 2026-05-07 14:37 | 56.05317 | 7.10952 | 38124 ft | 473 kts | 237° |
| 2026-05-07 14:37 | 55.99902 | 6.96240 | 38124 ft | 474 kts | 237° |
| 2026-05-07 14:38 | 55.96268 | 6.86417 | 38121 ft | 474 kts | 237° |
| 2026-05-07 14:38 | 55.92629 | 6.76619 | 38124 ft | 473 kts | 237° |
| 2026-05-07 14:39 | 55.89014 | 6.66926 | 38127 ft | 472 kts | 237° |
| 2026-05-07 14:39 | 55.85361 | 6.57171 | 38128 ft | 472 kts | 237° |
| 2026-05-07 14:40 | 55.81716 | 6.47473 | 38122 ft | 472 kts | 236° |
| 2026-05-07 14:40 | 55.78057 | 6.37778 | 38122 ft | 472 kts | 236° |
| 2026-05-07 14:41 | 55.74390 | 6.28100 | 38125 ft | 472 kts | 236° |
| 2026-05-07 14:41 | 55.70719 | 6.18450 | 38127 ft | 472 kts | 236° |
| 2026-05-07 14:42 | 55.67047 | 6.08832 | 38126 ft | 470 kts | 236° |
| 2026-05-07 14:42 | 55.63370 | 5.99242 | 38117 ft | 470 kts | 236° |
| 2026-05-07 14:43 | 55.59703 | 5.89716 | 38127 ft | 472 kts | 236° |
| 2026-05-07 14:43 | 55.55989 | 5.80102 | 38132 ft | 473 kts | 236° |
| 2026-05-07 14:44 | 55.52272 | 5.70520 | 38127 ft | 473 kts | 236° |
| 2026-05-07 14:44 | 55.48550 | 5.60964 | 38125 ft | 473 kts | 236° |
| 2026-05-07 14:45 | 55.44818 | 5.51418 | 38131 ft | 472 kts | 235° |
| 2026-05-07 14:45 | 55.41085 | 5.41906 | 38127 ft | 471 kts | 235° |
| 2026-05-07 14:46 | 55.37345 | 5.32411 | 38128 ft | 473 kts | 235° |
| 2026-05-07 14:46 | 55.33582 | 5.22897 | 38126 ft | 473 kts | 235° |
| 2026-05-07 14:47 | 55.29840 | 5.13471 | 38126 ft | 473 kts | 235° |
| 2026-05-07 14:47 | 55.25931 | 5.04178 | 38129 ft | 473 kts | 229° |
| 2026-05-07 14:48 | 55.20918 | 4.96744 | 38134 ft | 474 kts | 212° |
| 2026-05-07 14:48 | 55.15174 | 4.91014 | 38123 ft | 475 kts | 208° |
| 2026-05-07 14:49 | 55.09354 | 4.85633 | 38130 ft | 477 kts | 208° |
| 2026-05-07 14:49 | 55.03480 | 4.80220 | 38126 ft | 477 kts | 208° |
| 2026-05-07 14:50 | 54.97615 | 4.74769 | 38127 ft | 477 kts | 208° |
| 2026-05-07 14:50 | 54.91765 | 4.69322 | 38125 ft | 477 kts | 208° |
| 2026-05-07 14:51 | 54.85899 | 4.63871 | 38126 ft | 479 kts | 208° |
| 2026-05-07 14:51 | 54.80053 | 4.58461 | 38121 ft | 479 kts | 208° |
| 2026-05-07 14:52 | 54.74169 | 4.53036 | 38125 ft | 479 kts | 208° |
| 2026-05-07 14:52 | 54.68269 | 4.47615 | 38121 ft | 479 kts | 208° |
| 2026-05-07 14:53 | 54.63371 | 4.43127 | 38128 ft | 479 kts | 208° |
| 2026-05-07 14:53 | 54.57473 | 4.37734 | 38123 ft | 480 kts | 208° |
| 2026-05-07 14:54 | 54.51561 | 4.32351 | 38125 ft | 480 kts | 208° |
| 2026-05-07 14:54 | 54.45658 | 4.26999 | 38127 ft | 480 kts | 208° |
| 2026-05-07 14:55 | 54.39751 | 4.21658 | 38121 ft | 479 kts | 208° |
| 2026-05-07 14:55 | 54.33871 | 4.16358 | 38122 ft | 480 kts | 208° |
| 2026-05-07 14:56 | 54.27956 | 4.11043 | 38123 ft | 480 kts | 208° |
| 2026-05-07 14:56 | 54.22038 | 4.05744 | 38124 ft | 480 kts | 208° |
| 2026-05-07 14:57 | 54.16122 | 4.00462 | 38117 ft | 480 kts | 207° |
| 2026-05-07 14:57 | 54.10199 | 3.95192 | 38119 ft | 481 kts | 207° |
| 2026-05-07 14:58 | 54.04266 | 3.89930 | 38113 ft | 481 kts | 207° |
| 2026-05-07 14:58 | 53.98328 | 3.84680 | 38117 ft | 481 kts | 207° |
| 2026-05-07 14:59 | 53.92394 | 3.79450 | 38117 ft | 481 kts | 207° |
| 2026-05-07 14:59 | 53.86454 | 3.74233 | 38129 ft | 481 kts | 207° |
| 2026-05-07 15:00 | 53.80546 | 3.69062 | 38134 ft | 481 kts | 207° |
| 2026-05-07 15:00 | 53.74602 | 3.63875 | 38139 ft | 481 kts | 207° |
| 2026-05-07 15:01 | 53.68657 | 3.58704 | 38144 ft | 481 kts | 207° |
| 2026-05-07 15:01 | 53.62709 | 3.53547 | 38138 ft | 481 kts | 207° |
| 2026-05-07 15:02 | 53.56752 | 3.48398 | 38146 ft | 481 kts | 207° |
| 2026-05-07 15:02 | 53.50790 | 3.43261 | 38146 ft | 481 kts | 207° |
| 2026-05-07 15:03 | 53.44833 | 3.38145 | 38137 ft | 481 kts | 207° |
| 2026-05-07 15:03 | 53.38871 | 3.33041 | 38140 ft | 481 kts | 207° |
| 2026-05-07 15:04 | 53.32900 | 3.27950 | 38132 ft | 481 kts | 207° |
| 2026-05-07 15:04 | 53.26967 | 3.22900 | 38126 ft | 481 kts | 207° |
| 2026-05-07 15:05 | 53.20999 | 3.17831 | 38119 ft | 481 kts | 207° |
| 2026-05-07 15:05 | 53.15035 | 3.12788 | 38116 ft | 481 kts | 207° |
| 2026-05-07 15:06 | 53.09068 | 3.07756 | 38117 ft | 481 kts | 207° |
| 2026-05-07 15:06 | 53.03092 | 3.02739 | 38114 ft | 480 kts | 207° |
| 2026-05-07 15:07 | 52.97123 | 2.97745 | 38114 ft | 480 kts | 206° |
| 2026-05-07 15:07 | 52.91202 | 2.92798 | 38107 ft | 479 kts | 207° |
| 2026-05-07 15:08 | 52.85254 | 2.87847 | 37844 ft | 474 kts | 206° |
| 2026-05-07 15:08 | 52.82305 | 2.85399 | 37064 ft | 474 kts | 206° |
| 2026-05-07 15:08 | 52.79351 | 2.82952 | 36165 ft | 477 kts | 206° |
| 2026-05-07 15:09 | 52.76374 | 2.80488 | 35277 ft | 480 kts | 205° |
| 2026-05-07 15:09 | 52.73380 | 2.78010 | 34411 ft | 483 kts | 205° |
| 2026-05-07 15:09 | 52.70369 | 2.75528 | 33524 ft | 484 kts | 205° |
| 2026-05-07 15:09 | 52.67355 | 2.73048 | 32614 ft | 484 kts | 205° |
| 2026-05-07 15:10 | 52.64339 | 2.70569 | 31651 ft | 485 kts | 205° |
| 2026-05-07 15:10 | 52.61315 | 2.68087 | 30799 ft | 487 kts | 205° |
| 2026-05-07 15:10 | 52.58262 | 2.65584 | 30305 ft | 493 kts | 205° |
| 2026-05-07 15:10 | 52.55185 | 2.63065 | 30108 ft | 495 kts | 205° |
| 2026-05-07 15:11 | 52.49027 | 2.58034 | 30020 ft | 492 kts | 205° |
| 2026-05-07 15:11 | 52.46014 | 2.55576 | 29318 ft | 487 kts | 206° |
| 2026-05-07 15:11 | 52.43010 | 2.53130 | 28695 ft | 479 kts | 205° |
| 2026-05-07 15:12 | 52.40042 | 2.50720 | 28043 ft | 472 kts | 205° |
| 2026-05-07 15:12 | 52.37121 | 2.48353 | 27343 ft | 466 kts | 206° |
| 2026-05-07 15:12 | 52.34247 | 2.46024 | 26686 ft | 461 kts | 206° |
| 2026-05-07 15:12 | 52.31379 | 2.43705 | 26096 ft | 454 kts | 206° |
| 2026-05-07 15:13 | 52.28561 | 2.41430 | 25490 ft | 449 kts | 206° |
| 2026-05-07 15:13 | 52.25767 | 2.39177 | 25155 ft | 449 kts | 206° |
| 2026-05-07 15:13 | 52.22963 | 2.36918 | 25089 ft | 448 kts | 207° |
| 2026-05-07 15:13 | 52.20172 | 2.34673 | 25089 ft | 447 kts | 207° |
| 2026-05-07 15:14 | 52.17380 | 2.32429 | 25093 ft | 446 kts | 207° |
| 2026-05-07 15:14 | 52.14595 | 2.30195 | 25092 ft | 446 kts | 207° |
| 2026-05-07 15:14 | 52.11870 | 2.27785 | 25090 ft | 446 kts | 213° |
| 2026-05-07 15:14 | 52.09419 | 2.24694 | 25091 ft | 445 kts | 224° |
| 2026-05-07 15:15 | 52.07303 | 2.21053 | 24875 ft | 438 kts | 229° |
| 2026-05-07 15:15 | 52.05303 | 2.17331 | 24132 ft | 436 kts | 229° |
| 2026-05-07 15:15 | 52.03357 | 2.13680 | 23396 ft | 433 kts | 229° |
| 2026-05-07 15:15 | 52.01362 | 2.09956 | 22623 ft | 429 kts | 229° |
| 2026-05-07 15:16 | 51.99431 | 2.06368 | 21882 ft | 425 kts | 229° |
| 2026-05-07 15:16 | 51.97487 | 2.02770 | 21120 ft | 422 kts | 229° |
| 2026-05-07 15:16 | 51.95564 | 1.99221 | 20471 ft | 417 kts | 229° |
| 2026-05-07 15:16 | 51.93656 | 1.95707 | 20155 ft | 415 kts | 229° |
| 2026-05-07 15:17 | 51.91740 | 1.92184 | 20089 ft | 416 kts | 229° |
| 2026-05-07 15:17 | 51.89830 | 1.88677 | 20081 ft | 415 kts | 229° |
| 2026-05-07 15:17 | 51.87919 | 1.85175 | 20040 ft | 413 kts | 229° |
| 2026-05-07 15:17 | 51.86039 | 1.81736 | 19478 ft | 406 kts | 229° |
| 2026-05-07 15:18 | 51.84166 | 1.78312 | 18699 ft | 406 kts | 229° |
| 2026-05-07 15:18 | 51.82304 | 1.74915 | 17930 ft | 403 kts | 229° |
| 2026-05-07 15:18 | 51.80451 | 1.71538 | 17155 ft | 400 kts | 228° |
| 2026-05-07 15:18 | 51.78613 | 1.68191 | 16490 ft | 395 kts | 228° |
| 2026-05-07 15:19 | 51.76865 | 1.64893 | 16136 ft | 374 kts | 232° |
| 2026-05-07 15:19 | 51.75543 | 1.61503 | 16076 ft | 339 kts | 243° |
| 2026-05-07 15:19 | 51.74741 | 1.58106 | 16064 ft | 314 kts | 254° |
| 2026-05-07 15:19 | 51.74340 | 1.54661 | 16077 ft | 311 kts | 262° |
| 2026-05-07 15:20 | 51.74104 | 1.51210 | 16080 ft | 308 kts | 263° |
| 2026-05-07 15:20 | 51.73890 | 1.47765 | 16080 ft | 308 kts | 263° |
| 2026-05-07 15:20 | 51.73674 | 1.44326 | 16080 ft | 308 kts | 263° |
| 2026-05-07 15:20 | 51.73454 | 1.40876 | 16084 ft | 309 kts | 263° |
| 2026-05-07 15:21 | 51.73235 | 1.37471 | 16078 ft | 308 kts | 262° |
| 2026-05-07 15:21 | 51.73010 | 1.34030 | 16062 ft | 308 kts | 262° |
| 2026-05-07 15:21 | 51.72785 | 1.30587 | 15693 ft | 308 kts | 263° |
| 2026-05-07 15:21 | 51.72559 | 1.27161 | 15230 ft | 306 kts | 263° |
| 2026-05-07 15:22 | 51.72333 | 1.23747 | 14791 ft | 305 kts | 263° |
| 2026-05-07 15:22 | 51.72106 | 1.20346 | 14332 ft | 305 kts | 263° |
| 2026-05-07 15:22 | 51.71879 | 1.16949 | 13880 ft | 304 kts | 262° |
| 2026-05-07 15:22 | 51.71652 | 1.13571 | 13425 ft | 302 kts | 262° |
| 2026-05-07 15:23 | 51.71426 | 1.10214 | 12992 ft | 299 kts | 262° |
| 2026-05-07 15:23 | 51.71201 | 1.06894 | 12565 ft | 297 kts | 263° |
| 2026-05-07 15:23 | 51.70976 | 1.03595 | 12102 ft | 296 kts | 262° |
| 2026-05-07 15:23 | 51.70751 | 1.00312 | 11676 ft | 293 kts | 262° |
| 2026-05-07 15:24 | 51.70528 | 0.97052 | 11244 ft | 292 kts | 262° |
| 2026-05-07 15:24 | 51.70306 | 0.93815 | 10834 ft | 289 kts | 262° |
| 2026-05-07 15:24 | 51.70085 | 0.90603 | 10436 ft | 287 kts | 262° |
| 2026-05-07 15:24 | 51.69863 | 0.87419 | 10142 ft | 284 kts | 262° |
| 2026-05-07 15:25 | 51.69642 | 0.84248 | 10072 ft | 284 kts | 262° |
| 2026-05-07 15:25 | 51.69421 | 0.81125 | 10072 ft | 285 kts | 262° |
| 2026-05-07 15:25 | 51.69195 | 0.77914 | 10073 ft | 284 kts | 262° |
| 2026-05-07 15:25 | 51.68974 | 0.74794 | 9841 ft | 282 kts | 262° |
| 2026-05-07 15:26 | 51.68753 | 0.71663 | 9354 ft | 281 kts | 262° |
| 2026-05-07 15:26 | 51.68531 | 0.68551 | 8943 ft | 278 kts | 262° |
| 2026-05-07 15:26 | 51.68315 | 0.65458 | 8518 ft | 276 kts | 262° |
| 2026-05-07 15:26 | 51.68101 | 0.62459 | 8288 ft | 261 kts | 262° |
| 2026-05-07 15:27 | 51.67898 | 0.59649 | 7939 ft | 246 kts | 262° |
| 2026-05-07 15:27 | 51.67700 | 0.56918 | 7543 ft | 244 kts | 262° |
| 2026-05-07 15:27 | 51.67505 | 0.54245 | 7295 ft | 238 kts | 262° |
| 2026-05-07 15:27 | 51.67313 | 0.51615 | 7089 ft | 235 kts | 262° |
| 2026-05-07 15:28 | 51.67123 | 0.48996 | 7070 ft | 236 kts | 262° |
| 2026-05-07 15:28 | 51.66932 | 0.46354 | 7034 ft | 238 kts | 262° |
| 2026-05-07 15:28 | 51.66736 | 0.43701 | 7014 ft | 238 kts | 262° |
| 2026-05-07 15:28 | 51.66539 | 0.41043 | 7011 ft | 239 kts | 262° |
| 2026-05-07 15:29 | 51.66343 | 0.38391 | 7011 ft | 238 kts | 262° |
| 2026-05-07 15:29 | 51.66147 | 0.35745 | 7008 ft | 238 kts | 262° |
| 2026-05-07 15:29 | 51.65950 | 0.33092 | 7008 ft | 238 kts | 262° |
| 2026-05-07 15:29 | 51.65752 | 0.30442 | 7008 ft | 238 kts | 262° |
| 2026-05-07 15:30 | 51.65556 | 0.27826 | 7008 ft | 239 kts | 262° |
| 2026-05-07 15:30 | 51.65357 | 0.25169 | 7011 ft | 239 kts | 262° |
| 2026-05-07 15:30 | 51.65158 | 0.22513 | 7011 ft | 239 kts | 262° |
| 2026-05-07 15:30 | 51.64958 | 0.19856 | 7015 ft | 238 kts | 261° |
| 2026-05-07 15:31 | 51.64756 | 0.17205 | 7014 ft | 239 kts | 262° |
| 2026-05-07 15:31 | 51.64556 | 0.14550 | 7013 ft | 238 kts | 262° |
| 2026-05-07 15:31 | 51.64396 | 0.11893 | 7014 ft | 239 kts | 263° |
| 2026-05-07 15:31 | 51.64260 | 0.09233 | 7015 ft | 238 kts | 264° |
| 2026-05-07 15:32 | 51.64120 | 0.06575 | 7015 ft | 239 kts | 264° |
| 2026-05-07 15:32 | 51.63978 | 0.03906 | 7013 ft | 239 kts | 264° |
| 2026-05-07 15:32 | 51.63833 | 0.01249 | 7015 ft | 239 kts | 264° |
| 2026-05-07 15:32 | 51.63685 | -0.01427 | 7014 ft | 239 kts | 264° |
| 2026-05-07 15:33 | 51.63537 | -0.04087 | 7007 ft | 239 kts | 264° |
| 2026-05-07 15:33 | 51.63402 | -0.06495 | 7010 ft | 239 kts | 264° |
| 2026-05-07 15:33 | 51.63255 | -0.09117 | 7013 ft | 238 kts | 264° |
| 2026-05-07 15:33 | 51.63105 | -0.11773 | 7017 ft | 238 kts | 264° |
| 2026-05-07 15:34 | 51.62953 | -0.14431 | 7017 ft | 238 kts | 264° |
| 2026-05-07 15:34 | 51.62801 | -0.17087 | 7017 ft | 238 kts | 264° |
| 2026-05-07 15:34 | 51.62648 | -0.19750 | 7019 ft | 239 kts | 264° |
| 2026-05-07 15:34 | 51.62495 | -0.22408 | 7022 ft | 239 kts | 264° |
| 2026-05-07 15:35 | 51.62343 | -0.25062 | 7021 ft | 238 kts | 263° |
| 2026-05-07 15:35 | 51.62189 | -0.27717 | 7018 ft | 238 kts | 263° |
| 2026-05-07 15:35 | 51.62034 | -0.30366 | 6909 ft | 236 kts | 263° |
| 2026-05-07 15:35 | 51.61880 | -0.32989 | 6569 ft | 236 kts | 263° |
| 2026-05-07 15:36 | 51.61725 | -0.35625 | 6204 ft | 236 kts | 264° |
| 2026-05-07 15:36 | 51.61571 | -0.38241 | 5855 ft | 234 kts | 264° |
| 2026-05-07 15:36 | 51.61418 | -0.40837 | 5505 ft | 233 kts | 264° |
| 2026-05-07 15:36 | 51.61264 | -0.43428 | 5176 ft | 231 kts | 263° |
| 2026-05-07 15:37 | 51.61114 | -0.45952 | 5007 ft | 229 kts | 263° |
| 2026-05-07 15:37 | 51.60960 | -0.48512 | 4990 ft | 230 kts | 263° |
| 2026-05-07 15:37 | 51.60806 | -0.51076 | 4992 ft | 230 kts | 263° |
| 2026-05-07 15:37 | 51.60652 | -0.53635 | 4993 ft | 229 kts | 263° |
| 2026-05-07 15:38 | 51.60503 | -0.56115 | 4983 ft | 214 kts | 263° |
| 2026-05-07 15:38 | 51.60362 | -0.58456 | 5002 ft | 208 kts | 263° |
| 2026-05-07 15:38 | 51.60221 | -0.60762 | 5007 ft | 206 kts | 263° |
| 2026-05-07 15:38 | 51.60080 | -0.63066 | 4997 ft | 207 kts | 263° |
| 2026-05-07 15:39 | 51.59940 | -0.65375 | 4990 ft | 208 kts | 263° |
| 2026-05-07 15:39 | 51.59846 | -0.66916 | 4989 ft | 208 kts | 263° |
| 2026-05-07 15:39 | 51.59702 | -0.69237 | 4989 ft | 208 kts | 263° |
| 2026-05-07 15:39 | 51.59550 | -0.71550 | 4988 ft | 208 kts | 262° |
| 2026-05-07 15:40 | 51.59152 | -0.73782 | 4965 ft | 208 kts | 244° |
| 2026-05-07 15:40 | 51.58241 | -0.75603 | 4532 ft | 212 kts | 218° |
| 2026-05-07 15:40 | 51.56936 | -0.76627 | 4181 ft | 208 kts | 199° |
| 2026-05-07 15:40 | 51.55550 | -0.77310 | 3759 ft | 208 kts | 196° |
| 2026-05-07 15:41 | 51.54160 | -0.77960 | 3388 ft | 206 kts | 197° |
| 2026-05-07 15:41 | 51.52783 | -0.78555 | 3071 ft | 203 kts | 192° |
| 2026-05-07 15:41 | 51.51390 | -0.78642 | 2985 ft | 205 kts | 174° |
| 2026-05-07 15:41 | 51.50042 | -0.77958 | 2692 ft | 204 kts | 152° |
| 2026-05-07 15:42 | 51.48863 | -0.76689 | 2522 ft | 205 kts | 145° |
| 2026-05-07 15:42 | 51.47938 | -0.74952 | 2497 ft | 210 kts | 116° |
| 2026-05-07 15:42 | 51.47560 | -0.72750 | 2478 ft | 197 kts | 93° |
| 2026-05-07 15:42 | 51.47637 | -0.70667 | 2475 ft | 177 kts | 86° |
| 2026-05-07 15:43 | 51.47703 | -0.68755 | 2478 ft | 169 kts | 91° |
| 2026-05-07 15:43 | 51.47686 | -0.66865 | 2387 ft | 168 kts | 92° |
| 2026-05-07 15:43 | 51.47689 | -0.64994 | 2161 ft | 167 kts | 91° |
| 2026-05-07 15:43 | 51.47698 | -0.63136 | 1924 ft | 166 kts | 90° |
| 2026-05-07 15:44 | 51.47705 | -0.61281 | 1713 ft | 167 kts | 91° |
| 2026-05-07 15:44 | 51.47710 | -0.59430 | 1480 ft | 166 kts | 91° |
| 2026-05-07 15:44 | 51.47717 | -0.57586 | 1245 ft | 163 kts | 91° |
| 2026-05-07 15:44 | 51.47724 | -0.55781 | 1025 ft | 160 kts | 91° |
| 2026-05-07 15:45 | 51.47730 | -0.54037 | 804 ft | 152 kts | 90° |
| 2026-05-07 15:45 | 51.47736 | -0.52385 | 595 ft | 143 kts | 90° |
| 2026-05-07 15:45 | 51.47742 | -0.50862 | 408 ft | 131 kts | 90° |
| 2026-05-07 15:45 | 51.47751 | -0.49440 | 220 ft | 124 kts | 90° |
| 2026-05-07 15:46 | 51.47755 | -0.47032 | 98 ft | 70 kts | 90° |
| 2026-05-07 15:46 | 51.47756 | -0.46494 | 99 ft | 33 kts | 90° |
| 2026-05-07 15:46 | 51.47745 | -0.46220 | 94 ft | 16 kts | 115° |
| 2026-05-07 15:47 | 51.47671 | -0.46103 | 96 ft | 8 kts | 148° |
| 2026-05-07 15:47 | 51.47644 | -0.46078 | 96 ft | 3 kts | 150° |
| 2026-05-07 15:47 | 51.47641 | -0.46076 | 96 ft | 3 kts | 156° |
| 2026-05-07 15:47 | 51.47588 | -0.46075 | 96 ft | 8 kts | 189° |
| 2026-05-07 15:48 | 51.47528 | -0.46129 | 97 ft | 12 kts | 232° |
| 2026-05-07 15:48 | 51.47512 | -0.46272 | 97 ft | 15 kts | 270° |
| 2026-05-07 15:48 | 51.47513 | -0.46452 | 97 ft | 17 kts | 271° |
| 2026-05-07 15:48 | 51.47514 | -0.46635 | 95 ft | 17 kts | 269° |
| 2026-05-07 15:49 | 51.47473 | -0.46749 | 96 ft | 13 kts | 192° |
| 2026-05-07 15:49 | 51.47370 | -0.46731 | 96 ft | 17 kts | 176° |
| 2026-05-07 15:49 | 51.47252 | -0.46729 | 95 ft | 16 kts | 180° |
| 2026-05-07 15:49 | 51.47135 | -0.46728 | 93 ft | 14 kts | 180° |
| 2026-05-07 15:50 | 51.47033 | -0.46704 | 97 ft | 17 kts | 158° |
| 2026-05-07 15:50 | 51.46931 | -0.46599 | 97 ft | 17 kts | 146° |
| 2026-05-07 15:50 | 51.46863 | -0.46524 | 97 ft | 8 kts | 145° |
| 2026-05-07 15:50 | 51.46819 | -0.46477 | 98 ft | 8 kts | 145° |
| 2026-05-07 15:51 | 51.46765 | -0.46405 | 98 ft | 12 kts | 128° |
| 2026-05-07 15:51 | 51.46747 | -0.46268 | 97 ft | 14 kts | 91° |
| 2026-05-07 15:51 | 51.46747 | -0.46107 | 96 ft | 14 kts | 90° |
| 2026-05-07 15:51 | 51.46748 | -0.45934 | 96 ft | 17 kts | 90° |
| 2026-05-07 15:52 | 51.46748 | -0.45776 | 96 ft | 9 kts | 90° |
| 2026-05-07 15:52 | 51.46748 | -0.45672 | 97 ft | 8 kts | 90° |
| 2026-05-07 15:52 | 51.46764 | -0.45594 | 98 ft | 5 kts | 44° |
| 2026-05-07 15:52 | 51.46802 | -0.45578 | 96 ft | 7 kts | 11° |
| 2026-05-07 15:53 | 51.46824 | -0.45576 | 95 ft | 0 kts | 1° |
| 2026-05-07 15:53 | 51.46833 | -0.45576 | 93 ft | 1 kts | 1° |
| 2026-05-07 15:53 | 51.46835 | -0.45576 | 93 ft | 0 kts | 1° |
| 2026-05-07 15:53 | 51.46837 | -0.45576 | 93 ft | 0 kts | 0° |
| 2026-05-07 15:54 | 51.46839 | -0.45576 | 93 ft | 0 kts | 0° |
| 2026-05-07 16:04 | 51.46838 | -0.45576 | 93 ft | 0 kts | 0° |